createdAt,value
2018-05-14T00:00:37.469Z,100496.79
2018-05-14T00:02:40.830Z,100493.59
2018-05-14T00:04:44.981Z,100500.81
2018-05-14T00:06:48.348Z,100499.36
2018-05-14T00:08:52.438Z,100499.70
2018-05-14T00:10:55.873Z,100486.02
2018-05-14T00:12:59.199Z,100499.00
2018-05-14T00:15:02.568Z,100492.38
2018-05-14T00:17:05.880Z,100484.89
2018-05-14T00:19:09.254Z,100476.33
2018-05-14T00:21:12.689Z,100449.50
2018-05-14T00:23:17.044Z,100435.55
2018-05-14T00:25:20.436Z,100485.64
2018-05-14T00:27:23.873Z,100470.39
2018-05-14T00:29:27.224Z,100469.13
2018-05-14T00:31:30.562Z,100470.87
2018-05-14T00:33:34.026Z,100478.75
2018-05-14T00:35:38.183Z,100470.25
2018-05-14T00:37:42.975Z,100475.72
2018-05-14T00:39:46.324Z,100470.32
2018-05-14T00:41:49.876Z,100469.54
2018-05-14T00:43:53.246Z,100462.25
2018-05-14T00:45:56.626Z,100469.45
2018-05-14T00:47:59.922Z,100459.72
2018-05-14T00:50:03.283Z,100457.10
2018-05-14T00:52:07.398Z,100453.41
2018-05-14T00:54:10.738Z,100453.38
2018-05-14T00:56:14.047Z,100445.97
2018-05-14T00:58:17.396Z,100440.41
2018-05-14T01:00:20.722Z,100456.38
2018-05-14T01:02:24.063Z,100466.14
2018-05-14T01:04:27.445Z,100461.58
2018-05-14T01:06:31.632Z,100463.60
2018-05-14T01:08:34.935Z,100458.87
2018-05-14T01:10:39.061Z,100470.92
2018-05-14T01:12:43.871Z,100457.31
2018-05-14T01:14:47.949Z,100460.89
2018-05-14T01:16:52.114Z,100462.83
2018-05-14T01:18:55.460Z,100462.81
2018-05-14T01:20:58.762Z,100440.55
2018-05-14T01:23:02.245Z,100456.87
2018-05-14T01:25:05.632Z,100457.03
2018-05-14T01:27:09.529Z,100456.09
2018-05-14T01:29:12.898Z,100461.81
2018-05-14T01:31:16.240Z,100456.10
2018-05-14T01:33:19.681Z,100458.73
2018-05-14T01:35:23.276Z,100453.13
2018-05-14T01:37:26.582Z,100442.19
2018-05-14T01:39:30.690Z,100443.70
2018-05-14T01:41:34.104Z,100447.48
2018-05-14T01:43:37.426Z,100450.42
2018-05-14T01:45:41.003Z,100459.30
2018-05-14T01:47:44.429Z,100458.70
2018-05-14T01:49:48.596Z,100451.14
2018-05-14T01:51:52.712Z,100455.82
2018-05-14T01:53:56.015Z,100449.64
2018-05-14T01:55:59.369Z,100451.95
2018-05-14T01:58:02.669Z,100442.42
2018-05-14T02:00:06.792Z,100444.78
2018-05-14T02:02:10.122Z,100448.77
2018-05-14T02:04:14.228Z,100452.91
2018-05-14T02:06:18.304Z,100448.73
2018-05-14T02:08:21.667Z,100440.02
2018-05-14T02:10:24.977Z,100426.03
2018-05-14T02:12:28.376Z,100437.98
2018-05-14T02:14:32.576Z,100440.41
2018-05-14T02:16:35.933Z,100438.97
2018-05-14T02:18:39.249Z,100441.25
2018-05-14T02:20:42.609Z,100437.28
2018-05-14T02:22:46.727Z,100437.93
2018-05-14T02:24:50.921Z,100442.59
2018-05-14T02:26:54.251Z,100434.66
2018-05-14T02:28:57.607Z,100421.44
2018-05-14T02:31:01.018Z,100438.75
2018-05-14T02:33:04.403Z,100440.53
2018-05-14T02:35:07.748Z,100441.63
2018-05-14T02:37:11.172Z,100406.90
2018-05-14T02:39:15.291Z,100445.02
2018-05-14T02:41:18.595Z,100444.97
2018-05-14T02:43:22.013Z,100433.58
2018-05-14T02:45:25.315Z,100431.38
2018-05-14T02:47:29.441Z,100433.58
2018-05-14T02:49:32.752Z,100430.94
2018-05-14T02:51:36.066Z,100430.95
2018-05-14T02:53:40.203Z,100439.77
2018-05-14T02:55:43.548Z,100429.22
2018-05-14T02:57:46.950Z,100422.29
2018-05-14T02:59:51.077Z,100427.85
2018-05-14T03:01:55.208Z,100429.04
2018-05-14T03:03:58.553Z,100430.67
2018-05-14T03:06:01.882Z,100432.92
2018-05-14T03:08:05.231Z,100430.36
2018-05-14T03:10:08.568Z,100438.61
2018-05-14T03:12:12.011Z,100433.58
2018-05-14T03:14:17.165Z,100432.58
2018-05-14T03:16:20.536Z,100435.23
2018-05-14T03:18:23.878Z,100437.11
2018-05-14T03:20:27.211Z,100431.39
2018-05-14T03:22:30.537Z,100424.70
2018-05-14T03:24:33.922Z,100442.01
2018-05-14T03:26:37.265Z,100440.87
2018-05-14T03:28:40.587Z,100417.64
2018-05-14T03:30:44.689Z,100436.42
2018-05-14T03:32:48.054Z,100440.91
2018-05-14T03:34:51.343Z,100429.52
2018-05-14T03:36:54.729Z,100442.00
2018-05-14T03:38:58.113Z,100444.66
2018-05-14T03:41:01.489Z,100440.69
2018-05-14T03:43:05.588Z,100436.93
2018-05-14T03:45:08.943Z,100450.19
2018-05-14T03:47:12.256Z,100451.47
2018-05-14T03:49:15.613Z,100448.25
2018-05-14T03:51:19.019Z,100451.19
2018-05-14T03:53:22.360Z,100445.16
2018-05-14T03:55:26.452Z,100436.11
2018-05-14T03:57:29.819Z,100437.81
2018-05-14T03:59:50.818Z,100447.71
2018-05-14T04:04:58.875Z,100453.17
2018-05-14T04:07:02.215Z,100444.73
2018-05-14T04:09:06.405Z,100449.59
2018-05-14T04:11:10.895Z,100451.76
2018-05-14T04:13:14.244Z,100439.95
2018-05-14T04:15:17.591Z,100442.19
2018-05-14T04:17:21.050Z,100450.57
2018-05-14T04:19:24.436Z,100447.28
2018-05-14T04:21:28.033Z,100438.53
2018-05-14T04:23:31.406Z,100445.06
2018-05-14T04:27:48.836Z,100443.13
2018-05-14T04:29:52.252Z,100447.09
2018-05-14T04:31:55.620Z,100439.50
2018-05-14T04:33:58.957Z,100440.55
2018-05-14T04:36:02.330Z,100433.07
2018-05-14T04:38:05.684Z,100430.95
2018-05-14T04:40:09.778Z,100432.61
2018-05-14T04:42:13.240Z,100423.16
2018-05-14T04:44:16.610Z,100413.06
2018-05-14T04:46:19.948Z,100416.91
2018-05-14T04:48:23.317Z,100421.70
2018-05-14T04:50:26.739Z,100402.48
2018-05-14T04:52:31.151Z,100418.62
2018-05-14T04:54:34.601Z,100405.25
2018-05-14T04:56:37.972Z,100421.27
2018-05-14T04:58:41.353Z,100410.73
2018-05-14T05:00:45.470Z,100411.17
2018-05-14T05:02:48.843Z,100414.20
2018-05-14T05:04:52.584Z,100420.84
2018-05-14T05:06:56.448Z,100415.05
2018-05-14T05:09:00.527Z,100412.05
2018-05-14T05:11:04.635Z,100423.74
2018-05-14T05:13:08.017Z,100417.86
2018-05-14T05:15:11.455Z,100429.55
2018-05-14T05:17:15.137Z,100429.03
2018-05-14T05:19:18.433Z,100436.76
2018-05-14T05:21:22.836Z,100443.61
2018-05-14T05:23:27.676Z,100439.58
2018-05-14T05:25:31.410Z,100442.25
2018-05-14T05:27:34.758Z,100447.72
2018-05-14T05:29:38.185Z,100451.57
2018-05-14T05:31:42.276Z,100446.66
2018-05-14T05:33:45.933Z,100433.41
2018-05-14T05:35:49.320Z,100443.02
2018-05-14T05:37:52.700Z,100427.27
2018-05-14T05:39:56.084Z,100427.03
2018-05-14T05:42:00.204Z,100427.22
2018-05-14T05:44:03.652Z,100427.98
2018-05-14T05:46:07.028Z,100429.24
2018-05-14T05:48:10.361Z,100432.92
2018-05-14T05:50:13.830Z,100433.83
2018-05-14T05:52:17.973Z,100437.11
2018-05-14T05:54:21.611Z,100435.25
2018-05-14T05:56:25.179Z,100445.32
2018-05-14T05:58:29.425Z,100445.94
2018-05-14T06:00:32.862Z,100444.19
2018-05-14T06:02:36.306Z,100459.11
2018-05-14T06:04:39.649Z,100456.43
2018-05-14T06:06:43.052Z,100463.23
2018-05-14T06:08:47.295Z,100462.44
2018-05-14T06:10:50.785Z,100456.17
2018-05-14T06:12:54.279Z,100455.44
2018-05-14T06:14:57.837Z,100461.64
2018-05-14T06:17:01.339Z,100459.34
2018-05-14T06:19:04.788Z,100470.69
2018-05-14T06:21:08.167Z,100464.55
2018-05-14T06:23:12.326Z,100460.13
2018-05-14T06:25:18.166Z,100467.34
2018-05-14T06:27:21.580Z,100449.39
2018-05-14T06:29:25.012Z,100461.33
2018-05-14T06:31:28.408Z,100469.54
2018-05-14T06:33:31.981Z,100464.97
2018-05-14T06:35:36.264Z,100469.98
2018-05-14T06:37:39.680Z,100470.31
2018-05-14T06:39:43.176Z,100470.85
2018-05-14T06:41:46.660Z,100484.81
2018-05-14T06:43:49.988Z,100475.06
2018-05-14T06:45:53.435Z,100474.94
2018-05-14T06:47:56.818Z,100475.02
2018-05-14T06:50:00.264Z,100474.30
2018-05-14T06:52:03.633Z,100486.23
2018-05-14T06:54:07.799Z,100476.03
2018-05-14T06:56:11.594Z,100490.30
2018-05-14T06:58:15.688Z,100495.69
2018-05-14T07:00:19.001Z,100493.30
2018-05-14T07:02:22.381Z,100491.05
2018-05-14T07:04:25.788Z,100488.17
2018-05-14T07:06:29.156Z,100491.72
2018-05-14T07:08:32.458Z,100485.19
2018-05-14T07:10:35.980Z,100486.69
2018-05-14T07:12:39.334Z,100487.59
2018-05-14T07:14:42.735Z,100488.57
2018-05-14T07:16:46.153Z,100479.97
2018-05-14T07:18:50.365Z,100478.13
2018-05-14T07:20:54.059Z,100475.52
2018-05-14T07:22:57.454Z,100473.22
2018-05-14T07:25:00.980Z,100474.94
2018-05-14T07:27:04.610Z,100467.08
2018-05-14T07:31:24.079Z,100478.17
2018-05-14T07:33:27.407Z,100449.95
2018-05-14T07:35:31.705Z,100469.83
2018-05-14T07:37:35.849Z,100466.12
2018-05-14T07:39:39.289Z,100474.17
2018-05-14T07:41:42.626Z,100469.17
2018-05-14T07:43:46.014Z,100468.65
2018-05-14T07:45:50.092Z,100475.25
2018-05-14T07:48:11.096Z,100454.11
2018-05-14T07:50:14.436Z,100482.83
2018-05-14T07:54:28.138Z,100476.14
2018-05-14T07:56:31.713Z,100479.75
2018-05-14T07:58:35.898Z,100482.97
2018-05-14T08:00:40.067Z,100481.91
2018-05-14T08:02:43.529Z,100479.93
2018-05-14T08:04:46.906Z,100485.55
2018-05-14T08:06:50.379Z,100488.73
2018-05-14T08:08:53.931Z,100483.83
2018-05-14T08:10:57.283Z,100480.94
2018-05-14T08:13:00.815Z,100481.77
2018-05-14T08:15:04.345Z,100430.41
2018-05-14T08:17:07.703Z,100486.86
2018-05-14T08:19:11.087Z,100485.31
2018-05-14T08:21:14.509Z,100489.47
2018-05-14T08:23:18.666Z,100491.16
2018-05-14T08:25:22.130Z,100495.63
2018-05-14T08:27:25.553Z,100485.95
2018-05-14T08:29:28.932Z,100485.31
2018-05-14T08:31:32.354Z,100493.12
2018-05-14T08:33:35.817Z,100490.05
2018-05-14T08:35:39.227Z,100486.97
2018-05-14T08:37:42.569Z,100488.46
2018-05-14T08:39:46.774Z,100486.50
2018-05-14T08:41:50.164Z,100490.45
2018-05-14T08:43:53.545Z,100477.37
2018-05-14T08:45:56.999Z,100495.53
2018-05-14T08:48:00.475Z,100489.03
2018-05-14T08:50:04.699Z,100494.77
2018-05-14T08:52:08.072Z,100500.30
2018-05-14T08:54:12.320Z,100487.45
2018-05-14T08:56:15.607Z,100487.92
2018-05-14T08:58:18.974Z,100484.69
2018-05-14T09:00:22.417Z,100501.30
2018-05-14T09:02:25.814Z,100490.03
2018-05-14T09:04:29.201Z,100487.63
2018-05-14T09:06:32.612Z,100491.50
2018-05-14T09:08:35.994Z,100488.89
2018-05-14T09:10:39.522Z,100475.23
2018-05-14T09:12:43.787Z,100485.34
2018-05-14T09:14:47.521Z,100488.42
2018-05-14T09:16:51.982Z,100492.91
2018-05-14T09:18:55.456Z,100495.72
2018-05-14T09:20:59.675Z,100494.98
2018-05-14T09:23:03.813Z,100488.78
2018-05-14T09:25:07.291Z,100492.72
2018-05-14T09:27:10.838Z,100500.95
2018-05-14T09:29:14.519Z,100503.33
2018-05-14T09:31:18.055Z,100501.40
2018-05-14T09:33:21.400Z,100495.73
2018-05-14T09:35:24.809Z,100507.34
2018-05-14T09:37:28.196Z,100502.45
2018-05-14T09:39:31.629Z,100501.84
2018-05-14T09:41:35.036Z,100490.81
2018-05-14T09:43:39.212Z,100481.34
2018-05-14T09:45:42.657Z,100491.55
2018-05-14T09:47:46.007Z,100493.53
2018-05-14T09:49:49.318Z,100502.87
2018-05-14T09:51:52.724Z,100498.95
2018-05-14T09:53:56.184Z,100474.92
2018-05-14T09:55:59.768Z,100468.22
2018-05-14T09:58:03.319Z,100482.37
2018-05-14T10:00:06.729Z,100498.96
2018-05-14T10:02:10.123Z,100483.68
2018-05-14T10:04:13.574Z,100476.45
2018-05-14T10:06:17.789Z,100479.90
2018-05-14T10:08:21.386Z,100479.20
2018-05-14T10:10:24.738Z,100480.38
2018-05-14T10:12:28.205Z,100482.28
2018-05-14T10:14:32.548Z,100482.27
2018-05-14T10:16:36.255Z,100486.80
2018-05-14T10:18:39.810Z,100466.11
2018-05-14T10:20:43.332Z,100483.11
2018-05-14T10:22:46.748Z,100484.14
2018-05-14T10:24:53.243Z,100489.31
2018-05-14T10:26:56.603Z,100481.50
2018-05-14T10:29:00.029Z,100482.84
2018-05-14T10:31:03.917Z,100495.52
2018-05-14T10:33:07.286Z,100492.55
2018-05-14T10:35:10.672Z,100484.74
2018-05-14T10:37:14.872Z,100489.55
2018-05-14T10:39:18.266Z,100495.20
2018-05-14T10:41:21.630Z,100470.45
2018-05-14T10:43:25.868Z,100473.09
2018-05-14T10:45:29.247Z,100490.17
2018-05-14T10:47:32.707Z,100496.67
2018-05-14T10:49:36.200Z,100486.61
2018-05-14T10:51:39.818Z,100482.61
2018-05-14T10:53:43.259Z,100494.84
2018-05-14T10:55:46.628Z,100480.55
2018-05-14T10:57:50.041Z,100487.91
2018-05-14T10:59:53.446Z,100493.22
2018-05-14T11:01:56.894Z,100497.59
2018-05-14T11:04:00.905Z,100491.47
2018-05-14T11:06:05.555Z,100488.92
2018-05-14T11:08:09.476Z,100496.30
2018-05-14T11:10:13.035Z,100481.98
2018-05-14T11:12:17.264Z,100498.91
2018-05-14T11:14:20.875Z,100497.61
2018-05-14T11:16:24.344Z,100501.56
2018-05-14T11:18:27.852Z,100491.17
2018-05-14T11:20:31.298Z,100489.87
2018-05-14T11:22:36.166Z,100494.20
2018-05-14T11:24:39.549Z,100496.78
2018-05-14T11:26:43.025Z,100498.55
2018-05-14T11:28:46.441Z,100499.41
2018-05-14T11:30:49.859Z,100509.38
2018-05-14T11:32:53.433Z,100509.39
2018-05-14T11:34:56.783Z,100501.58
2018-05-14T11:37:00.211Z,100501.13
2018-05-14T11:39:06.634Z,100498.49
2018-05-14T11:41:09.958Z,100496.34
2018-05-14T11:45:37.095Z,100490.20
2018-05-14T11:47:40.515Z,100491.53
2018-05-14T11:49:43.956Z,100492.79
2018-05-14T11:51:47.387Z,100504.02
2018-05-14T11:53:50.738Z,100482.29
2018-05-14T11:55:54.133Z,100499.13
2018-05-14T11:57:57.576Z,100495.73
2018-05-14T12:00:01.804Z,100497.39
2018-05-14T12:02:05.244Z,100505.63
2018-05-14T12:04:09.477Z,100496.20
2018-05-14T12:06:13.009Z,100497.00
2018-05-14T12:08:16.444Z,100492.92
2018-05-14T12:10:19.994Z,100502.50
2018-05-14T12:12:23.528Z,100500.78
2018-05-14T12:14:27.714Z,100499.34
2018-05-14T12:16:31.148Z,100487.57
2018-05-14T12:18:34.508Z,100498.52
2018-05-14T12:20:38.077Z,100468.10
2018-05-14T12:22:41.676Z,100476.72
2018-05-14T12:24:45.981Z,100504.30
2018-05-14T12:26:49.373Z,100510.95
2018-05-14T12:28:52.973Z,100474.55
2018-05-14T12:30:56.789Z,100482.55
2018-05-14T12:33:01.028Z,100492.88
2018-05-14T12:35:04.515Z,100491.30
2018-05-14T12:37:08.295Z,100494.47
2018-05-14T12:39:11.733Z,100485.90
2018-05-14T12:41:15.145Z,100472.00
2018-05-14T12:43:18.535Z,100472.94
2018-05-14T12:45:21.960Z,100491.11
2018-05-14T12:47:25.393Z,100489.68
2018-05-14T12:49:28.811Z,100486.70
2018-05-14T12:51:32.384Z,100474.91
2018-05-14T12:53:35.809Z,100485.22
2018-05-14T12:55:39.958Z,100487.89
2018-05-14T12:57:43.386Z,100480.80
2018-05-14T12:59:46.940Z,100486.33
2018-05-14T13:01:50.546Z,100480.98
2018-05-14T13:03:53.944Z,100491.08
2018-05-14T13:05:57.629Z,100492.92
2018-05-14T13:08:01.257Z,100488.63
2018-05-14T13:10:05.144Z,100485.16
2018-05-14T13:12:08.767Z,100486.14
2018-05-14T13:14:12.312Z,100478.80
2018-05-14T13:16:16.507Z,100499.53
2018-05-14T13:18:20.463Z,100486.14
2018-05-14T13:20:23.893Z,100487.62
2018-05-14T13:22:27.521Z,100489.45
2018-05-14T13:24:31.709Z,100488.79
2018-05-14T13:26:35.098Z,100477.84
2018-05-14T13:28:38.654Z,100463.38
2018-05-14T13:30:42.019Z,100477.27
2018-05-14T13:32:46.231Z,100459.31
2018-05-14T13:34:50.547Z,100447.12
2018-05-14T13:36:54.735Z,100483.63
2018-05-14T13:38:58.422Z,100471.83
2018-05-14T13:41:01.853Z,100484.93
2018-05-14T13:43:06.039Z,100483.64
2018-05-14T13:45:09.410Z,100482.08
2018-05-14T13:47:12.799Z,100485.28
2018-05-14T13:49:16.216Z,100472.19
2018-05-14T13:51:19.592Z,100480.89
2018-05-14T13:53:22.981Z,100461.90
2018-05-14T13:55:26.382Z,100474.83
2018-05-14T13:57:29.878Z,100472.62
2018-05-14T13:59:33.210Z,100474.27
2018-05-14T14:01:36.752Z,100438.45
2018-05-14T14:03:40.135Z,100465.47
2018-05-14T14:05:43.950Z,100453.52
2018-05-14T14:07:47.385Z,100473.63
2018-05-14T14:09:50.826Z,100479.36
2018-05-14T14:11:54.225Z,100474.41
2018-05-14T14:13:57.580Z,100463.41
2018-05-14T14:16:01.759Z,100466.08
2018-05-14T14:18:05.188Z,100472.09
2018-05-14T14:20:08.597Z,100467.83
2018-05-14T14:22:11.942Z,100463.80
2018-05-14T14:24:15.400Z,100465.50
2018-05-14T14:26:18.720Z,100466.38
2018-05-14T14:28:22.146Z,100458.24
2018-05-14T14:30:27.746Z,100468.30
2018-05-14T14:32:31.157Z,100439.50
2018-05-14T14:34:34.536Z,100445.00
2018-05-14T14:36:37.977Z,100432.67
2018-05-14T14:38:42.159Z,100461.07
2018-05-14T14:40:45.632Z,100457.45
2018-05-14T14:42:49.147Z,100458.46
2018-05-14T14:44:52.810Z,100440.04
2018-05-14T14:46:56.304Z,100449.26
2018-05-14T14:48:59.673Z,100454.13
2018-05-14T14:51:03.008Z,100418.21
2018-05-14T14:53:06.383Z,100458.53
2018-05-14T14:55:09.890Z,100454.17
2018-05-14T14:57:13.420Z,100457.20
2018-05-14T14:59:16.848Z,100453.03
2018-05-14T15:01:20.222Z,100454.80
2018-05-14T15:03:23.649Z,100455.09
2018-05-14T15:05:27.065Z,100454.23
2018-05-14T15:07:30.462Z,100458.78
2018-05-14T15:09:33.862Z,100451.45
2018-05-14T15:11:37.962Z,100452.32
2018-05-14T15:13:41.893Z,100428.42
2018-05-14T15:15:45.471Z,100449.12
2018-05-14T15:17:48.929Z,100454.31
2018-05-14T15:19:52.422Z,100460.27
2018-05-14T15:21:55.759Z,100459.77
2018-05-14T15:23:59.231Z,100431.75
2018-05-14T15:26:02.697Z,100457.32
2018-05-14T15:28:06.292Z,100451.33
2018-05-14T15:30:09.695Z,100464.20
2018-05-14T15:32:14.577Z,100464.13
2018-05-14T15:34:17.951Z,100459.33
2018-05-14T15:36:21.433Z,100460.30
2018-05-14T15:38:24.865Z,100460.16
2018-05-14T15:40:29.053Z,100452.31
2018-05-14T15:42:32.498Z,100452.86
2018-05-14T15:44:36.659Z,100443.00
2018-05-14T15:46:40.248Z,100434.92
2018-05-14T15:48:43.689Z,100446.45
2018-05-14T15:50:48.048Z,100431.81
2018-05-14T15:52:51.450Z,100440.70
2018-05-14T15:54:54.816Z,100439.95
2018-05-14T15:56:58.196Z,100440.34
2018-05-14T15:59:01.547Z,100450.06
2018-05-14T16:01:05.783Z,100416.42
2018-05-14T16:03:09.240Z,100448.66
2018-05-14T16:05:12.692Z,100446.49
2018-05-14T16:07:16.057Z,100444.91
2018-05-14T16:09:19.410Z,100440.44
2018-05-14T16:11:22.829Z,100444.50
2018-05-14T16:13:26.456Z,100445.23
2018-05-14T16:15:30.106Z,100451.43
2018-05-14T16:17:33.583Z,100446.88
2018-05-14T16:19:36.893Z,100448.86
2018-05-14T16:21:40.339Z,100454.56
2018-05-14T16:23:44.626Z,100440.89
2018-05-14T16:25:48.150Z,100464.02
2018-05-14T16:27:53.173Z,100450.12
2018-05-14T16:32:13.344Z,100458.53
2018-05-14T16:34:18.377Z,100456.39
2018-05-14T16:36:23.603Z,100464.56
2018-05-14T16:38:31.715Z,100457.95
2018-05-14T16:40:36.637Z,100455.68
2018-05-14T16:44:50.430Z,100471.89
2018-05-14T16:46:54.307Z,100475.36
2018-05-14T16:49:00.472Z,100471.26
2018-05-14T16:51:08.808Z,100461.44
2018-05-14T16:53:12.932Z,100480.70
2018-05-14T16:55:18.163Z,100476.75
2018-05-14T16:57:21.865Z,100478.83
2018-05-14T16:59:25.358Z,100434.88
2018-05-14T17:01:31.235Z,100485.11
2018-05-14T17:03:36.965Z,100472.58
2018-05-14T17:07:55.058Z,100476.14
2018-05-14T17:09:59.897Z,100475.69
2018-05-14T17:12:03.882Z,100478.75
2018-05-14T17:14:08.966Z,100484.19
2018-05-14T17:16:14.121Z,100488.44
2018-05-14T18:53:57.789Z,100518.39
2018-05-14T18:58:38.697Z,100514.58
2018-05-14T19:08:53.435Z,100527.85
2018-05-14T19:13:53.336Z,100524.86
2018-05-14T19:18:50.218Z,100526.68
2018-05-14T19:20:56.333Z,100532.37
2018-05-14T19:23:07.493Z,100530.20
2018-05-14T19:25:13.613Z,100504.12
2018-05-14T19:27:19.643Z,100468.06
2018-05-14T19:29:33.025Z,100517.20
2018-05-14T19:31:37.786Z,100539.39
2018-05-14T20:26:06.932Z,100592.75
2018-05-14T20:31:02.076Z,100585.33
2018-05-14T20:35:21.635Z,100605.30
2018-05-14T20:42:10.314Z,100610.88
2018-05-14T20:47:00.533Z,100609.57
2018-05-14T20:49:09.066Z,100608.25
2018-05-14T20:51:12.846Z,100612.13
2018-05-14T20:55:40.914Z,100615.09
2018-05-14T20:57:45.279Z,100608.20
2018-05-14T20:59:53.505Z,100625.12
2018-05-14T21:04:18.868Z,100638.04
2018-05-14T21:06:23.949Z,100612.32
2018-05-14T21:18:30.206Z,100655.16
2018-05-14T21:20:34.829Z,100655.97
2018-05-14T21:22:38.824Z,100654.19
2018-05-14T21:24:42.210Z,100658.96
2018-05-14T21:26:47.063Z,100662.01
2018-05-14T21:28:51.316Z,100549.06
2018-05-14T21:30:54.794Z,100667.95
2018-05-14T21:32:58.241Z,100619.59
2018-05-14T21:35:01.628Z,100667.03
2018-05-14T21:37:08.932Z,100665.25
2018-05-14T21:39:12.354Z,100674.84
2018-05-14T21:41:15.849Z,100679.16
2018-05-14T21:43:19.726Z,100672.58
2018-05-14T21:45:23.268Z,100675.61
2018-05-14T21:47:26.636Z,100673.86
2018-05-14T21:49:30.774Z,100665.88
2018-05-14T21:51:34.296Z,100672.13
2018-05-14T21:53:37.732Z,100675.11
2018-05-14T21:55:41.954Z,100678.61
2018-05-14T21:57:47.296Z,100653.53
2018-05-14T21:59:51.426Z,100678.73
2018-05-14T22:01:54.961Z,100689.67
2018-05-14T22:03:58.397Z,100690.98
2018-05-14T22:06:03.725Z,100685.76
2018-05-14T22:08:07.064Z,100689.56
2018-05-14T22:10:10.471Z,100692.06
2018-05-14T22:12:13.993Z,100681.17
2018-05-14T22:14:17.380Z,100691.54
2018-05-14T22:16:22.051Z,100690.64
2018-05-14T22:18:25.373Z,100694.06
2018-05-14T22:20:29.155Z,100683.61
2018-05-14T22:22:32.572Z,100683.59
2018-05-14T22:24:35.960Z,100677.39
2018-05-14T22:26:39.319Z,100682.27
2018-05-14T22:28:42.771Z,100670.95
2018-05-14T22:30:46.155Z,100671.27
2018-05-14T22:32:49.521Z,100690.52
2018-05-14T22:34:52.941Z,100693.08
2018-05-14T22:36:56.349Z,100690.41
2018-05-14T22:38:59.778Z,100675.52
2018-05-14T22:41:04.036Z,100696.41
2018-05-14T22:43:07.442Z,100692.47
2018-05-14T22:45:10.817Z,100689.37
2018-05-14T22:47:14.401Z,100683.59
2018-05-14T22:49:19.107Z,100682.64
2018-05-14T22:51:22.466Z,100682.66
2018-05-14T22:53:25.825Z,100686.09
2018-05-14T22:55:29.153Z,100685.50
2018-05-14T22:57:32.536Z,100683.66
2018-05-14T22:59:35.934Z,100678.84
2018-05-14T23:01:39.296Z,100682.68
2018-05-14T23:03:43.387Z,100681.66
2018-05-14T23:05:46.746Z,100683.30
2018-05-14T23:07:50.857Z,100681.05
2018-05-14T23:09:55.032Z,100659.98
2018-05-14T23:11:58.395Z,100679.08
2018-05-14T23:14:01.835Z,100675.19
2018-05-14T23:16:05.296Z,100663.73
2018-05-14T23:18:10.140Z,100611.64
2018-05-14T23:20:14.404Z,100681.55
2018-05-14T23:22:18.556Z,100647.03
2018-05-14T23:24:23.099Z,100675.26
2018-05-14T23:26:27.230Z,100673.48
2018-05-14T23:28:31.426Z,100677.25
2018-05-14T23:30:34.823Z,100680.28
2018-05-14T23:32:38.226Z,100674.52
2018-05-14T23:34:41.597Z,100619.39
2018-05-14T23:36:45.068Z,100678.22
2018-05-14T23:38:48.497Z,100646.59
2018-05-14T23:40:51.995Z,100666.08
2018-05-14T23:42:55.783Z,100594.10
2018-05-14T23:44:59.952Z,100685.29
2018-05-14T23:47:03.290Z,100693.11
2018-05-14T23:49:06.764Z,100691.25
2018-05-14T23:51:10.605Z,100685.17
2018-05-14T23:53:14.777Z,100688.99
2018-05-14T23:55:18.183Z,100686.89
2018-05-14T23:57:21.556Z,100674.91
2018-05-14T23:59:24.908Z,100687.13
